Time;durP1;ratioP1;P1;durP2;ratioP2;P2;SDS_P1;SDS_P2;PMS_P1;PMS_P2;Temp;Humidity;BMP_temperature;BMP_pressure;BME280_temperature;BME280_humidity;BME280_pressure;Samples;Min_cycle;Max_cycle;Signal;HPM_P1;HPM_P2
2022/07/18 00:00:09;;;;;;;12.32;8.60;;;;;;;;;;5024203;28;20376;-72
2022/07/18 00:02:35;;;;;;;13.73;9.23;;;;;;;;;;5028299;28;20045;-71
2022/07/18 00:05:01;;;;;;;13.95;9.73;;;;;;;;;;5045010;28;20060;-71
2022/07/18 00:07:27;;;;;;;14.15;9.15;;;;;;;;;;5045217;28;20053;-71
2022/07/18 00:09:53;;;;;;;14.85;9.38;;;;;;;;;;5042712;28;20391;-71
2022/07/18 00:12:19;;;;;;;13.35;9.18;;;;;;;;;;5046595;28;20124;-72
2022/07/18 00:14:45;;;;;;;14.55;9.43;;;;;;;;;;5044331;28;20509;-71
2022/07/18 00:17:12;;;;;;;14.50;8.90;;;;;;;;;;5046428;28;20433;-71
2022/07/18 00:19:38;;;;;;;13.75;8.95;;;;;;;;;;5047584;28;20045;-71
2022/07/18 00:22:04;;;;;;;15.32;9.70;;;;;;;;;;5054439;28;20418;-71
2022/07/18 00:24:31;;;;;;;12.38;9.30;;;;;;;;;;5052518;28;20503;-72
2022/07/18 00:26:57;;;;;;;14.95;9.02;;;;;;;;;;5036283;28;20083;-72
2022/07/18 00:29:23;;;;;;;14.52;9.13;;;;;;;;;;5053455;28;20041;-72
2022/07/18 00:31:50;;;;;;;11.65;8.45;;;;;;;;;;5035178;28;20483;-72
2022/07/18 00:34:16;;;;;;;13.25;8.52;;;;;;;;;;5053019;28;20045;-71
2022/07/18 00:36:42;;;;;;;12.50;8.77;;;;;;;;;;5050508;28;20130;-72
2022/07/18 00:39:08;;;;;;;12.82;8.48;;;;;;;;;;5051225;28;20048;-72
2022/07/18 00:41:34;;;;;;;12.70;8.82;;;;;;;;;;5052951;28;20049;-71
2022/07/18 00:44:00;;;;;;;15.68;9.45;;;;;;;;;;5052031;28;20045;-71
2022/07/18 00:46:26;;;;;;;14.27;9.63;;;;;;;;;;5052884;28;20426;-72
2022/07/18 00:48:53;;;;;;;12.80;9.27;;;;;;;;;;5050818;28;20040;-72
2022/07/18 00:51:19;;;;;;;14.13;9.20;;;;;;;;;;5049253;28;20072;-72
2022/07/18 00:53:46;;;;;;;14.82;9.63;;;;;;;;;;5051694;28;20044;-71
2022/07/18 00:56:13;;;;;;;18.23;9.50;;;;;;;;;;5052269;28;20514;-71
2022/07/18 00:58:39;;;;;;;13.50;9.40;;;;;;;;;;5053122;28;20057;-71
2022/07/18 01:03:49;;;;;;;12.90;9.25;;;;;;;;;;5046050;28;20048;-71
2022/07/18 01:06:16;;;;;;;17.48;10.10;;;;;;;;;;5050615;28;20466;-72
2022/07/18 01:08:43;;;;;;;14.98;9.10;;;;;;;;;;5052144;28;20095;-72
2022/07/18 01:11:09;;;;;;;13.65;9.25;;;;;;;;;;5051054;28;20041;-72
2022/07/18 01:13:36;;;;;;;12.98;9.32;;;;;;;;;;5049819;28;20095;-71
2022/07/18 01:16:02;;;;;;;12.70;9.48;;;;;;;;;;5050124;28;20041;-71
2022/07/18 01:18:28;;;;;;;14.85;9.30;;;;;;;;;;5051003;28;20052;-72
2022/07/18 01:20:54;;;;;;;14.57;9.68;;;;;;;;;;5051057;28;20055;-72
2022/07/18 01:23:20;;;;;;;16.13;9.27;;;;;;;;;;5052904;28;20037;-71
2022/07/18 01:25:46;;;;;;;13.00;8.63;;;;;;;;;;5052962;28;20045;-72
2022/07/18 01:28:13;;;;;;;11.90;9.07;;;;;;;;;;5051736;28;20053;-72
2022/07/18 01:30:39;;;;;;;13.25;8.82;;;;;;;;;;5052972;28;20191;-72
2022/07/18 01:33:05;;;;;;;12.95;9.27;;;;;;;;;;5030223;28;20438;-72
2022/07/18 01:35:32;;;;;;;12.98;9.02;;;;;;;;;;5051112;28;20051;-71
2022/07/18 01:37:59;;;;;;;14.25;9.30;;;;;;;;;;5031829;28;20057;-72
2022/07/18 01:40:25;;;;;;;13.50;9.18;;;;;;;;;;5049672;28;21543;-72
2022/07/18 01:42:52;;;;;;;15.27;9.70;;;;;;;;;;5053024;28;20053;-71
2022/07/18 01:45:18;;;;;;;13.15;9.45;;;;;;;;;;5033895;28;20044;-72
2022/07/18 01:47:44;;;;;;;13.02;9.70;;;;;;;;;;5028478;28;20083;-72
2022/07/18 01:50:11;;;;;;;18.30;9.68;;;;;;;;;;5052105;28;20475;-72
2022/07/18 01:52:37;;;;;;;14.20;10.10;;;;;;;;;;5048699;28;20064;-71
2022/07/18 01:55:04;;;;;;;14.10;8.95;;;;;;;;;;5051586;28;20521;-71
2022/07/18 01:57:30;;;;;;;14.98;9.50;;;;;;;;;;5052989;28;20041;-72
2022/07/18 01:59:56;;;;;;;16.77;9.95;;;;;;;;;;5033489;28;20043;-72
2022/07/18 02:02:22;;;;;;;15.85;10.35;;;;;;;;;;5050576;28;20549;-72
2022/07/18 02:05:00;;;;;;;15.10;10.38;;;;;;;;;;5051764;28;20518;-72
2022/07/18 02:07:46;;;;;;;14.30;9.48;;;;;;;;;;5052187;28;20080;-72
2022/07/18 02:10:17;;;;;;;13.98;10.40;;;;;;;;;;5033402;28;20472;-72
2022/07/18 02:12:44;;;;;;;14.98;10.40;;;;;;;;;;5031768;28;20048;-72
2022/07/18 02:15:11;;;;;;;16.33;10.50;;;;;;;;;;5051408;28;20111;-72
2022/07/18 02:17:37;;;;;;;16.98;11.25;;;;;;;;;;5051273;28;20075;-72
2022/07/18 02:20:05;;;;;;;13.77;10.52;;;;;;;;;;5050560;28;20384;-72
2022/07/18 02:22:31;;;;;;;13.32;9.70;;;;;;;;;;5051670;28;20045;-71
2022/07/18 02:24:57;;;;;;;15.98;10.40;;;;;;;;;;5053740;28;20102;-72
2022/07/18 02:27:23;;;;;;;13.93;9.63;;;;;;;;;;5036158;28;20048;-72
2022/07/18 02:29:49;;;;;;;16.77;10.23;;;;;;;;;;5056158;28;20083;-71
2022/07/18 02:32:15;;;;;;;15.07;9.77;;;;;;;;;;5053516;28;20053;-72
2022/07/18 02:34:41;;;;;;;14.45;9.75;;;;;;;;;;5054417;28;20056;-72
2022/07/18 02:37:08;;;;;;;15.60;10.07;;;;;;;;;;5030790;28;20033;-72
2022/07/18 02:39:34;;;;;;;14.38;9.05;;;;;;;;;;5035800;28;20049;-72
2022/07/18 02:42:00;;;;;;;12.60;9.18;;;;;;;;;;5055454;28;20049;-72
2022/07/18 02:44:26;;;;;;;13.70;9.43;;;;;;;;;;5035754;28;20060;-72
2022/07/18 02:46:52;;;;;;;15.15;10.65;;;;;;;;;;5036624;28;20061;-73
2022/07/18 02:49:27;;;;;;;15.55;9.90;;;;;;;;;;5036247;28;20041;-72
2022/07/18 02:52:04;;;;;;;13.40;9.95;;;;;;;;;;5053935;28;20049;-71
2022/07/18 02:54:31;;;;;;;16.58;10.10;;;;;;;;;;5035326;28;20053;-72
2022/07/18 02:56:57;;;;;;;14.23;10.25;;;;;;;;;;5055667;28;20132;-71
2022/07/18 02:59:24;;;;;;;14.48;10.07;;;;;;;;;;5054714;28;20491;-72
2022/07/18 03:01:50;;;;;;;14.45;10.18;;;;;;;;;;5054299;28;20064;-72
2022/07/18 03:04:17;;;;;;;13.48;9.25;;;;;;;;;;5053677;28;20068;-71
2022/07/18 03:06:43;;;;;;;13.38;10.02;;;;;;;;;;5054314;28;20045;-71
2022/07/18 03:09:09;;;;;;;15.48;9.98;;;;;;;;;;5036186;28;20045;-71
2022/07/18 03:11:35;;;;;;;14.70;9.57;;;;;;;;;;5054950;28;20052;-72
2022/07/18 03:14:01;;;;;;;17.80;10.55;;;;;;;;;;5050859;28;20048;-72
2022/07/18 03:16:27;;;;;;;14.55;10.40;;;;;;;;;;5052581;28;20052;-72
2022/07/18 03:18:53;;;;;;;14.95;10.25;;;;;;;;;;5026764;28;20487;-71
2022/07/18 03:21:21;;;;;;;14.90;10.30;;;;;;;;;;5051008;28;20133;-72
2022/07/18 03:23:47;;;;;;;13.82;9.95;;;;;;;;;;5052998;28;20045;-73
2022/07/18 03:26:13;;;;;;;16.83;10.80;;;;;;;;;;5052398;28;20045;-72
2022/07/18 03:28:39;;;;;;;15.02;10.32;;;;;;;;;;5052394;28;20037;-73
2022/07/18 03:31:05;;;;;;;15.18;10.77;;;;;;;;;;5053882;28;20053;-72
2022/07/18 03:33:31;;;;;;;15.20;10.20;;;;;;;;;;5053006;28;20052;-73
2022/07/18 03:35:58;;;;;;;16.27;10.98;;;;;;;;;;5051889;28;20045;-73
2022/07/18 03:38:24;;;;;;;17.10;11.45;;;;;;;;;;5051182;28;20479;-73
2022/07/18 03:40:50;;;;;;;16.50;10.98;;;;;;;;;;5036464;28;20053;-72
2022/07/18 03:43:16;;;;;;;15.52;11.00;;;;;;;;;;5054518;28;20095;-72
2022/07/18 03:45:42;;;;;;;15.52;10.23;;;;;;;;;;5054580;28;20041;-72
2022/07/18 03:48:08;;;;;;;14.02;10.02;;;;;;;;;;5050495;28;20041;-72
2022/07/18 03:50:34;;;;;;;12.88;10.05;;;;;;;;;;5052147;28;20048;-72
2022/07/18 03:53:01;;;;;;;14.38;10.23;;;;;;;;;;5046515;28;20053;-72
2022/07/18 03:55:27;;;;;;;14.10;10.15;;;;;;;;;;5054642;28;20041;-72
2022/07/18 03:57:53;;;;;;;13.07;9.75;;;;;;;;;;5052877;28;20064;-72
2022/07/18 04:00:19;;;;;;;16.02;10.15;;;;;;;;;;5051314;28;20037;-72
2022/07/18 04:02:46;;;;;;;16.70;9.85;;;;;;;;;;5053610;28;20099;-72
2022/07/18 04:05:13;;;;;;;14.45;10.45;;;;;;;;;;5053245;28;20103;-72
2022/07/18 04:07:39;;;;;;;14.70;9.73;;;;;;;;;;5053979;28;20045;-73
2022/07/18 04:10:06;;;;;;;14.65;10.48;;;;;;;;;;5053210;28;20048;-72
2022/07/18 04:12:32;;;;;;;14.85;9.73;;;;;;;;;;5054209;28;20044;-72
2022/07/18 04:14:59;;;;;;;19.08;10.20;;;;;;;;;;5032952;28;20403;-72
2022/07/18 04:17:25;;;;;;;14.73;9.68;;;;;;;;;;5053604;28;20049;-73
2022/07/18 04:19:51;;;;;;;15.73;10.13;;;;;;;;;;5053392;28;20048;-72
2022/07/18 04:22:17;;;;;;;14.88;9.65;;;;;;;;;;5036021;28;20460;-72
2022/07/18 04:24:43;;;;;;;13.80;10.55;;;;;;;;;;5053941;28;20049;-72
2022/07/18 04:27:09;;;;;;;16.60;10.00;;;;;;;;;;5052080;28;20036;-72
2022/07/18 04:29:37;;;;;;;14.70;10.30;;;;;;;;;;5048433;28;20041;-71
2022/07/18 04:32:03;;;;;;;15.18;10.30;;;;;;;;;;5051625;28;20073;-71
2022/07/18 04:34:29;;;;;;;15.35;10.23;;;;;;;;;;5052773;28;20116;-72
2022/07/18 04:36:55;;;;;;;13.85;10.20;;;;;;;;;;5050102;28;20133;-71
2022/07/18 04:39:21;;;;;;;14.23;10.48;;;;;;;;;;5052011;28;20079;-73
2022/07/18 04:41:47;;;;;;;14.32;9.98;;;;;;;;;;5051172;28;20426;-72
2022/07/18 04:44:13;;;;;;;14.93;10.38;;;;;;;;;;5018122;28;20045;-72
2022/07/18 04:46:39;;;;;;;14.90;10.20;;;;;;;;;;5053372;28;20465;-72
2022/07/18 04:49:05;;;;;;;17.40;9.90;;;;;;;;;;5050639;28;20172;-72
2022/07/18 04:51:32;;;;;;;15.00;10.07;;;;;;;;;;5051496;28;20059;-72
2022/07/18 04:53:58;;;;;;;14.32;9.55;;;;;;;;;;5018008;28;20053;-73
2022/07/18 04:56:24;;;;;;;15.60;9.32;;;;;;;;;;5052729;28;20049;-71
2022/07/18 04:58:50;;;;;;;18.92;9.90;;;;;;;;;;5052930;28;20052;-72
2022/07/18 05:01:16;;;;;;;13.07;8.95;;;;;;;;;;5036052;28;20395;-72
2022/07/18 05:03:43;;;;;;;17.85;8.95;;;;;;;;;;5017246;28;20041;-71
2022/07/18 05:06:09;;;;;;;15.52;9.45;;;;;;;;;;5052999;28;20052;-72
2022/07/18 05:08:35;;;;;;;13.98;9.25;;;;;;;;;;5052477;28;20505;-73
2022/07/18 05:11:01;;;;;;;15.02;8.65;;;;;;;;;;5052859;28;20495;-72
2022/07/18 05:13:27;;;;;;;12.70;8.20;;;;;;;;;;5051236;28;20483;-72
2022/07/18 05:15:53;;;;;;;13.60;9.05;;;;;;;;;;5051992;28;20455;-73
2022/07/18 05:18:19;;;;;;;14.70;9.68;;;;;;;;;;5052408;28;20086;-73
2022/07/18 05:20:45;;;;;;;14.73;8.85;;;;;;;;;;5052072;28;20095;-72
2022/07/18 05:23:14;;;;;;;16.98;8.75;;;;;;;;;;5034999;28;20052;-73
2022/07/18 05:25:40;;;;;;;18.50;8.45;;;;;;;;;;5052758;28;20045;-72
2022/07/18 05:28:06;;;;;;;12.95;8.52;;;;;;;;;;5051209;28;20514;-72
2022/07/18 05:30:32;;;;;;;12.35;7.95;;;;;;;;;;5052197;28;20098;-72
2022/07/18 05:32:58;;;;;;;11.40;7.80;;;;;;;;;;5052195;28;20045;-72
2022/07/18 05:35:24;;;;;;;13.70;8.48;;;;;;;;;;5051737;28;20041;-72
2022/07/18 05:37:50;;;;;;;12.82;7.65;;;;;;;;;;5030866;28;20395;-72
2022/07/18 05:40:16;;;;;;;14.57;7.78;;;;;;;;;;5051956;28;20048;-72
2022/07/18 05:42:42;;;;;;;12.70;8.32;;;;;;;;;;5052482;28;20127;-72
2022/07/18 05:45:09;;;;;;;14.20;7.88;;;;;;;;;;5048845;28;20051;-72
2022/07/18 05:47:35;;;;;;;13.15;8.02;;;;;;;;;;5052183;28;20041;-72
2022/07/18 05:50:01;;;;;;;13.05;7.28;;;;;;;;;;5050053;28;20049;-72
2022/07/18 05:52:27;;;;;;;13.40;7.03;;;;;;;;;;5049864;28;20094;-71
2022/07/18 05:54:53;;;;;;;12.75;7.45;;;;;;;;;;5034487;28;20124;-72
2022/07/18 05:57:19;;;;;;;12.48;7.00;;;;;;;;;;5051128;28;20403;-71
2022/07/18 05:59:45;;;;;;;14.02;6.95;;;;;;;;;;5039478;28;20580;-72
2022/07/18 06:02:11;;;;;;;9.90;6.93;;;;;;;;;;5049710;28;20072;-72
2022/07/18 06:04:37;;;;;;;10.70;6.70;;;;;;;;;;5045305;28;20045;-72
2022/07/18 06:07:04;;;;;;;13.02;6.20;;;;;;;;;;5029355;28;20041;-72
2022/07/18 06:09:30;;;;;;;8.80;6.40;;;;;;;;;;5035155;28;20049;-72
2022/07/18 06:11:59;;;;;;;9.35;6.35;;;;;;;;;;5049212;28;20080;-72
2022/07/18 06:14:25;;;;;;;11.85;6.47;;;;;;;;;;5052223;28;20446;-73
2022/07/18 06:16:51;;;;;;;11.25;7.22;;;;;;;;;;5062353;28;20490;-73
2022/07/18 06:19:17;;;;;;;12.80;7.28;;;;;;;;;;5018667;28;20064;-73
2022/07/18 06:21:43;;;;;;;13.55;6.93;;;;;;;;;;5031084;28;20149;-73
2022/07/18 06:24:09;;;;;;;10.40;6.32;;;;;;;;;;5036975;28;20045;-73
2022/07/18 06:26:35;;;;;;;11.93;6.30;;;;;;;;;;5052768;28;20045;-73
2022/07/18 06:29:01;;;;;;;8.57;5.78;;;;;;;;;;5032901;28;20040;-74
2022/07/18 06:31:27;;;;;;;9.73;5.78;;;;;;;;;;5051838;28;20095;-73
2022/07/18 06:33:53;;;;;;;10.48;5.57;;;;;;;;;;5033745;28;20445;-73
2022/07/18 06:36:23;;;;;;;9.88;5.38;;;;;;;;;;5035031;28;20458;-73
2022/07/18 06:38:49;;;;;;;10.80;5.35;;;;;;;;;;5052968;28;20123;-72
2022/07/18 06:41:15;;;;;;;10.32;5.70;;;;;;;;;;5052755;28;20044;-73
2022/07/18 06:43:42;;;;;;;8.05;4.80;;;;;;;;;;5029720;28;20046;-73
2022/07/18 06:46:08;;;;;;;10.25;5.22;;;;;;;;;;5036521;28;20053;-73
2022/07/18 06:48:35;;;;;;;10.85;5.82;;;;;;;;;;5036355;28;20091;-71
2022/07/18 06:51:01;;;;;;;11.65;5.78;;;;;;;;;;5041836;28;20060;-73
2022/07/18 06:53:28;;;;;;;13.95;5.40;;;;;;;;;;5055160;28;20049;-75
2022/07/18 06:55:54;;;;;;;33.03;6.82;;;;;;;;;;5062973;28;20044;-73
2022/07/18 06:58:20;;;;;;;27.98;5.78;;;;;;;;;;5054030;28;20081;-73
2022/07/18 07:00:46;;;;;;;31.67;5.53;;;;;;;;;;5041659;28;20056;-73
2022/07/18 07:03:12;;;;;;;13.38;4.63;;;;;;;;;;5054517;28;20045;-74
2022/07/18 07:05:38;;;;;;;33.78;5.15;;;;;;;;;;5036174;28;20045;-74
2022/07/18 07:08:04;;;;;;;19.30;4.53;;;;;;;;;;5053751;28;20175;-74
2022/07/18 07:10:30;;;;;;;13.32;5.03;;;;;;;;;;5035370;28;20041;-72
2022/07/18 07:12:56;;;;;;;12.00;6.70;;;;;;;;;;5057582;28;20041;-72
2022/07/18 07:15:23;;;;;;;20.45;8.68;;;;;;;;;;5055472;28;20039;-75
2022/07/18 07:17:50;;;;;;;16.95;9.13;;;;;;;;;;5039905;28;20041;-71
2022/07/18 07:20:21;;;;;;;13.20;8.18;;;;;;;;;;5022661;28;20068;-71
2022/07/18 07:22:56;;;;;;;11.95;5.85;;;;;;;;;;5055092;28;20511;-70
2022/07/18 07:25:24;;;;;;;13.65;4.00;;;;;;;;;;5055512;28;20052;-72
2022/07/18 07:27:50;;;;;;;13.10;3.72;;;;;;;;;;5055701;28;20080;-74
2022/07/18 07:30:16;;;;;;;8.32;3.70;;;;;;;;;;5054531;28;20045;-73
2022/07/18 07:32:43;;;;;;;8.57;3.47;;;;;;;;;;5055241;28;20107;-72
2022/07/18 07:35:11;;;;;;;8.95;2.72;;;;;;;;;;5034731;28;20059;-72
2022/07/18 07:37:39;;;;;;;7.13;2.97;;;;;;;;;;5051971;28;20445;-72
2022/07/18 07:40:05;;;;;;;11.43;2.80;;;;;;;;;;5032678;28;20128;-71
2022/07/18 07:42:31;;;;;;;14.15;3.10;;;;;;;;;;5052790;28;20052;-71
2022/07/18 07:44:57;;;;;;;6.22;2.15;;;;;;;;;;5051086;28;20037;-72
2022/07/18 07:47:23;;;;;;;7.20;2.10;;;;;;;;;;5021594;28;20076;-72
2022/07/18 07:49:49;;;;;;;7.95;2.40;;;;;;;;;;5036453;28;20079;-71
2022/07/18 07:52:17;;;;;;;8.77;2.08;;;;;;;;;;5054681;28;20396;-72
2022/07/18 07:54:46;;;;;;;4.60;1.95;;;;;;;;;;5055604;28;20446;-72
2022/07/18 07:57:13;;;;;;;8.30;2.30;;;;;;;;;;5055514;28;20119;-72
2022/07/18 07:59:39;;;;;;;6.90;2.25;;;;;;;;;;5054138;28;20048;-71
2022/07/18 08:02:05;;;;;;;8.75;2.08;;;;;;;;;;5053606;28;20124;-71
2022/07/18 08:04:31;;;;;;;5.55;2.10;;;;;;;;;;5054047;28;20060;-72
2022/07/18 08:06:57;;;;;;;7.60;2.13;;;;;;;;;;5054791;28;20049;-71
2022/07/18 08:09:23;;;;;;;7.35;2.05;;;;;;;;;;5054141;28;20059;-71
2022/07/18 08:11:49;;;;;;;8.68;1.90;;;;;;;;;;5054785;28;20127;-72
2022/07/18 08:14:15;;;;;;;9.98;2.05;;;;;;;;;;5054852;28;20041;-72
2022/07/18 08:16:41;;;;;;;9.63;2.15;;;;;;;;;;5053884;28;20548;-71
2022/07/18 08:19:07;;;;;;;10.90;2.25;;;;;;;;;;5053915;28;20087;-71
2022/07/18 08:21:33;;;;;;;7.63;2.45;;;;;;;;;;5035045;28;20048;-71
2022/07/18 08:24:00;;;;;;;5.95;2.00;;;;;;;;;;5054376;28;20127;-71
2022/07/18 08:26:26;;;;;;;6.88;1.88;;;;;;;;;;5052612;28;20048;-71
2022/07/18 08:28:52;;;;;;;8.60;2.00;;;;;;;;;;5053936;28;20041;-72
2022/07/18 08:31:18;;;;;;;7.10;2.00;;;;;;;;;;5051895;28;20094;-71
2022/07/18 08:33:45;;;;;;;7.78;1.80;;;;;;;;;;5054345;28;20045;-71
2022/07/18 08:36:11;;;;;;;6.47;1.90;;;;;;;;;;5032636;28;20063;-72
2022/07/18 08:38:38;;;;;;;6.57;1.90;;;;;;;;;;5036877;28;20056;-71
2022/07/18 08:41:04;;;;;;;5.97;1.70;;;;;;;;;;5034391;28;20045;-72
2022/07/18 08:43:30;;;;;;;5.70;1.65;;;;;;;;;;5038445;28;20050;-72
2022/07/18 08:45:57;;;;;;;5.60;1.80;;;;;;;;;;5051825;28;20037;-71
2022/07/18 08:48:23;;;;;;;8.13;1.80;;;;;;;;;;5051877;28;20056;-72
2022/07/18 08:50:50;;;;;;;6.75;1.73;;;;;;;;;;5053171;28;20442;-72
2022/07/18 08:53:16;;;;;;;7.70;1.92;;;;;;;;;;5053866;28;20111;-72
2022/07/18 08:55:43;;;;;;;6.82;2.10;;;;;;;;;;5054334;28;20140;-72
2022/07/18 08:58:14;;;;;;;8.43;1.80;;;;;;;;;;5047557;28;20144;-72
2022/07/18 09:00:40;;;;;;;;;;;;;;;;;;5050079;28;20550;-72
2022/07/18 09:03:06;;;;;;;6.40;1.48;;;;;;;;;;5043931;28;19968;-72
2022/07/18 09:05:33;;;;;;;5.82;1.80;;;;;;;;;;5037979;28;20124;-72
2022/07/18 09:08:16;;;;;;;8.82;1.92;;;;;;;;;;5034532;28;20037;-72
2022/07/18 09:10:52;;;;;;;4.68;1.45;;;;;;;;;;5050799;28;20049;-72
2022/07/18 09:13:19;;;;;;;9.50;1.55;;;;;;;;;;5053726;28;20092;-72
2022/07/18 09:16:04;;;;;;;8.13;1.92;;;;;;;;;;5054935;28;20044;-71
2022/07/18 09:18:31;;;;;;;9.68;1.90;;;;;;;;;;5051701;28;20040;-71
2022/07/18 09:20:58;;;;;;;8.00;1.85;;;;;;;;;;5045435;28;20037;-71
2022/07/18 09:23:27;;;;;;;9.43;1.80;;;;;;;;;;5051428;28;20110;-71
2022/07/18 09:25:53;;;;;;;6.13;2.08;;;;;;;;;;5052668;28;20048;-72
2022/07/18 09:28:19;;;;;;;8.98;1.80;;;;;;;;;;5001203;28;20045;-72
2022/07/18 09:30:45;;;;;;;19.55;2.70;;;;;;;;;;5038676;28;20059;-71
2022/07/18 09:33:11;;;;;;;9.43;1.95;;;;;;;;;;5032838;28;20045;-71
2022/07/18 09:35:42;;;;;;;8.85;1.83;;;;;;;;;;5053443;28;20053;-70
2022/07/18 09:38:09;;;;;;;5.95;1.48;;;;;;;;;;5034315;28;20055;-70
2022/07/18 09:40:36;;;;;;;7.97;1.63;;;;;;;;;;5053549;28;20041;-70
2022/07/18 09:43:07;;;;;;;8.27;1.52;;;;;;;;;;5035525;28;20064;-71
2022/07/18 09:45:37;;;;;;;7.68;1.50;;;;;;;;;;5053166;28;20044;-71
2022/07/18 09:48:03;;;;;;;10.63;1.83;;;;;;;;;;5053430;28;20037;-71
2022/07/18 09:50:29;;;;;;;8.00;1.70;;;;;;;;;;5052195;28;20095;-71
2022/07/18 09:52:59;;;;;;;5.18;1.55;;;;;;;;;;5052707;28;20442;-71
2022/07/18 09:55:25;;;;;;;5.33;1.57;;;;;;;;;;5045472;28;20516;-71
2022/07/18 09:57:59;;;;;;;7.60;1.90;;;;;;;;;;5037766;28;20049;-72
2022/07/18 10:00:26;;;;;;;4.80;1.50;;;;;;;;;;5052908;28;20376;-71
2022/07/18 10:02:52;;;;;;;6.82;1.45;;;;;;;;;;5053516;28;20407;-70
2022/07/18 10:05:18;;;;;;;6.93;1.75;;;;;;;;;;5053149;28;20068;-71
2022/07/18 10:07:45;;;;;;;5.10;1.50;;;;;;;;;;5034093;28;20063;-71
2022/07/18 10:10:14;;;;;;;5.95;1.48;;;;;;;;;;5052194;28;20048;-71
2022/07/18 10:12:40;;;;;;;5.28;1.50;;;;;;;;;;5053616;28;20048;-71
2022/07/18 10:15:07;;;;;;;6.45;1.70;;;;;;;;;;5047716;28;20045;-71
2022/07/18 10:17:33;;;;;;;7.88;1.58;;;;;;;;;;5031509;28;20559;-70
2022/07/18 10:20:04;;;;;;;6.70;1.70;;;;;;;;;;5049316;28;20048;-70
2022/07/18 10:22:31;;;;;;;8.23;1.70;;;;;;;;;;5049332;28;20045;-70
2022/07/18 10:24:57;;;;;;;7.57;1.55;;;;;;;;;;5043212;28;20411;-71
2022/07/18 10:27:24;;;;;;;10.15;1.65;;;;;;;;;;5037743;28;20049;-72
2022/07/18 10:30:09;;;;;;;6.07;1.60;;;;;;;;;;5029417;28;20057;-71
2022/07/18 10:32:35;;;;;;;4.65;1.48;;;;;;;;;;5047981;28;20102;-70
2022/07/18 10:35:02;;;;;;;6.50;1.75;;;;;;;;;;5034367;28;20037;-71
2022/07/18 10:37:33;;;;;;;7.03;1.80;;;;;;;;;;5049480;28;20048;-71
2022/07/18 10:40:20;;;;;;;9.02;1.88;;;;;;;;;;5048993;28;20499;-71
2022/07/18 10:42:46;;;;;;;7.25;2.30;;;;;;;;;;5051307;28;20049;-71
2022/07/18 10:45:31;;;;;;;6.82;2.00;;;;;;;;;;5054398;28;20045;-71
2022/07/18 10:47:57;;;;;;;7.28;2.20;;;;;;;;;;5054758;28;20036;-71
2022/07/18 10:50:23;;;;;;;10.75;2.08;;;;;;;;;;5051090;28;20486;-72
2022/07/18 10:52:49;;;;;;;8.45;2.08;;;;;;;;;;5057117;28;20045;-70
2022/07/18 10:55:28;;;;;;;7.60;2.00;;;;;;;;;;5052861;28;20049;-71
2022/07/18 10:57:54;;;;;;;6.25;2.17;;;;;;;;;;5053918;28;20066;-71
2022/07/18 11:00:27;;;;;;;6.50;2.38;;;;;;;;;;5054840;28;20120;-71
2022/07/18 11:03:05;;;;;;;7.25;2.33;;;;;;;;;;5053438;28;20041;-71
2022/07/18 11:05:31;;;;;;;7.53;2.15;;;;;;;;;;5051648;28;20044;-71
2022/07/18 11:08:04;;;;;;;11.65;2.20;;;;;;;;;;5054209;28;20045;-71
2022/07/18 11:13:30;;;;;;;7.45;2.50;;;;;;;;;;5055760;28;20373;-71
2022/07/18 11:16:02;;;;;;;9.43;2.70;;;;;;;;;;5056762;28;20049;-72
2022/07/18 11:18:28;;;;;;;9.45;2.60;;;;;;;;;;5055750;28;20124;-71
2022/07/18 11:20:56;;;;;;;6.07;2.40;;;;;;;;;;5053588;28;20044;-71
2022/07/18 11:23:23;;;;;;;9.27;2.63;;;;;;;;;;5054667;28;20146;-71
2022/07/18 11:25:56;;;;;;;8.18;2.75;;;;;;;;;;5055239;28;20045;-71
2022/07/18 11:28:23;;;;;;;6.00;2.63;;;;;;;;;;5053776;28;20052;-72
2022/07/18 11:31:05;;;;;;;7.50;3.08;;;;;;;;;;5055784;28;20045;-72
2022/07/18 11:33:33;;;;;;;6.70;3.20;;;;;;;;;;5055309;28;20052;-71
2022/07/18 11:36:04;;;;;;;7.53;3.10;;;;;;;;;;5055449;28;20048;-71
2022/07/18 11:38:30;;;;;;;9.18;3.15;;;;;;;;;;5036129;28;20040;-73
2022/07/18 11:40:56;;;;;;;6.20;2.92;;;;;;;;;;5057199;28;20050;-71
2022/07/18 11:43:26;;;;;;;6.25;3.20;;;;;;;;;;5036527;28;20057;-72
2022/07/18 11:46:00;;;;;;;11.27;3.55;;;;;;;;;;5035357;28;20056;-71
2022/07/18 11:48:26;;;;;;;6.18;2.95;;;;;;;;;;5036462;28;20146;-71
2022/07/18 11:50:52;;;;;;;6.10;2.95;;;;;;;;;;5035152;28;20506;-71
2022/07/18 11:53:18;;;;;;;6.07;2.85;;;;;;;;;;5041619;28;20376;-71
2022/07/18 11:55:44;;;;;;;7.20;3.03;;;;;;;;;;5036330;28;20048;-72
2022/07/18 11:58:14;;;;;;;7.78;3.30;;;;;;;;;;5051614;28;20041;-71
2022/07/18 12:00:41;;;;;;;15.60;3.67;;;;;;;;;;5035351;28;20037;-72
2022/07/18 12:03:15;;;;;;;9.90;3.38;;;;;;;;;;5034754;28;20049;-72
2022/07/18 12:05:42;;;;;;;6.97;3.58;;;;;;;;;;5047624;28;20470;-71
2022/07/18 12:08:26;;;;;;;6.38;3.25;;;;;;;;;;5053264;28;20908;-71
2022/07/18 12:11:06;;;;;;;8.30;3.05;;;;;;;;;;5055015;28;20168;-71
2022/07/18 12:13:42;;;;;;;7.75;3.10;;;;;;;;;;5055534;28;20442;-72
2022/07/18 12:16:09;;;;;;;8.38;3.38;;;;;;;;;;5052927;28;20171;-71
2022/07/18 12:18:35;;;;;;;7.10;3.17;;;;;;;;;;5054002;28;20045;-71
2022/07/18 12:21:08;;;;;;;7.13;3.30;;;;;;;;;;5036229;28;20128;-71
2022/07/18 12:23:34;;;;;;;7.10;3.08;;;;;;;;;;5054546;28;20045;-71
2022/07/18 12:26:01;;;;;;;6.57;3.30;;;;;;;;;;5035899;28;20033;-71
2022/07/18 12:28:27;;;;;;;8.43;3.17;;;;;;;;;;5053280;28;20052;-72
2022/07/18 12:30:54;;;;;;;8.27;3.38;;;;;;;;;;5051011;28;20036;-71
2022/07/18 12:33:20;;;;;;;9.02;4.18;;;;;;;;;;5046667;28;20049;-72
2022/07/18 12:35:46;;;;;;;7.60;3.20;;;;;;;;;;5048095;28;20048;-72
2022/07/18 12:38:13;;;;;;;6.82;3.40;;;;;;;;;;5044195;28;20044;-72
2022/07/18 12:40:47;;;;;;;6.35;3.20;;;;;;;;;;5051252;28;20045;-71
2022/07/18 12:43:15;;;;;;;6.65;3.40;;;;;;;;;;5050530;28;20095;-72
2022/07/18 12:45:42;;;;;;;7.88;3.65;;;;;;;;;;5034392;28;20038;-73
2022/07/18 12:48:09;;;;;;;6.97;3.08;;;;;;;;;;5045654;28;20127;-71
2022/07/18 12:50:36;;;;;;;7.78;3.38;;;;;;;;;;5047448;28;20041;-71
2022/07/18 12:53:02;;;;;;;9.35;3.15;;;;;;;;;;5043838;28;20128;-72
2022/07/18 12:55:28;;;;;;;6.13;3.90;;;;;;;;;;5050473;28;20055;-72
2022/07/18 12:57:54;;;;;;;7.93;3.50;;;;;;;;;;5048107;28;20486;-71
2022/07/18 13:00:21;;;;;;;8.25;3.50;;;;;;;;;;5052045;28;20045;-71
2022/07/18 13:02:47;;;;;;;8.15;3.15;;;;;;;;;;5053796;28;20102;-72
2022/07/18 13:05:13;;;;;;;7.88;3.53;;;;;;;;;;5053125;28;20041;-72
2022/07/18 13:07:39;;;;;;;10.55;3.58;;;;;;;;;;5035872;28;20041;-70
2022/07/18 13:10:06;;;;;;;9.35;2.97;;;;;;;;;;5018861;28;20052;-71
2022/07/18 13:12:32;;;;;;;9.20;3.50;;;;;;;;;;5053999;28;20391;-71
2022/07/18 13:14:58;;;;;;;9.60;3.08;;;;;;;;;;5053550;28;20479;-71
2022/07/18 13:17:24;;;;;;;9.93;3.47;;;;;;;;;;5053549;28;20037;-72
2022/07/18 13:19:50;;;;;;;7.38;3.00;;;;;;;;;;5052775;28;20106;-71
2022/07/18 13:22:16;;;;;;;7.30;3.40;;;;;;;;;;5034180;28;20077;-72
2022/07/18 13:24:42;;;;;;;9.70;3.28;;;;;;;;;;5049291;28;20044;-72
2022/07/18 13:27:08;;;;;;;6.93;3.05;;;;;;;;;;5053051;28;20033;-72
2022/07/18 13:29:34;;;;;;;7.25;3.05;;;;;;;;;;5053391;28;20045;-72
2022/07/18 13:32:02;;;;;;;7.03;2.88;;;;;;;;;;5046144;28;20144;-70
2022/07/18 13:34:28;;;;;;;5.90;2.53;;;;;;;;;;5052469;28;20510;-72
2022/07/18 13:36:55;;;;;;;7.50;2.60;;;;;;;;;;5051295;28;20048;-72
2022/07/18 13:39:21;;;;;;;6.68;2.80;;;;;;;;;;5049031;28;20072;-71
2022/07/18 13:41:48;;;;;;;8.93;3.13;;;;;;;;;;5029249;28;20090;-71
2022/07/18 13:44:14;;;;;;;7.30;2.92;;;;;;;;;;5052418;28;20124;-71
2022/07/18 13:46:40;;;;;;;8.73;2.67;;;;;;;;;;5048283;28;20143;-72
2022/07/18 13:49:07;;;;;;;6.68;2.88;;;;;;;;;;5050241;28;20076;-71
2022/07/18 13:51:34;;;;;;;6.55;2.70;;;;;;;;;;5052490;28;20099;-70
2022/07/18 13:54:00;;;;;;;6.22;2.85;;;;;;;;;;5050838;28;20399;-72
2022/07/18 13:56:26;;;;;;;7.80;2.70;;;;;;;;;;5052447;28;20048;-72
2022/07/18 13:58:52;;;;;;;7.32;2.47;;;;;;;;;;5043624;28;20132;-72
2022/07/18 14:01:19;;;;;;;7.22;3.03;;;;;;;;;;5045034;28;20110;-72
2022/07/18 14:03:45;;;;;;;7.57;2.83;;;;;;;;;;5042963;28;20045;-72
2022/07/18 14:06:11;;;;;;;7.75;2.60;;;;;;;;;;5051684;28;20076;-72
2022/07/18 14:08:39;;;;;;;5.70;2.65;;;;;;;;;;5051519;28;20103;-72
2022/07/18 14:11:05;;;;;;;5.70;2.63;;;;;;;;;;5052595;28;20063;-71
2022/07/18 14:13:31;;;;;;;7.13;2.65;;;;;;;;;;5067434;28;20056;-71
2022/07/18 14:15:57;;;;;;;9.30;2.55;;;;;;;;;;5044791;28;20518;-71
2022/07/18 14:18:23;;;;;;;6.97;2.30;;;;;;;;;;5053021;28;20073;-71
2022/07/18 14:20:49;;;;;;;6.50;2.58;;;;;;;;;;5058881;28;20044;-72
2022/07/18 14:23:15;;;;;;;9.93;2.72;;;;;;;;;;5057305;28;20483;-72
2022/07/18 14:25:41;;;;;;;5.28;2.50;;;;;;;;;;5059050;28;20513;-71
2022/07/18 14:28:07;;;;;;;7.68;2.75;;;;;;;;;;5059120;28;20053;-72
2022/07/18 14:30:33;;;;;;;6.55;2.50;;;;;;;;;;5056382;28;20048;-72
2022/07/18 14:33:00;;;;;;;10.85;2.70;;;;;;;;;;5044810;28;20072;-71
2022/07/18 14:35:26;;;;;;;6.75;2.80;;;;;;;;;;5055621;28;20407;-73
2022/07/18 14:37:52;;;;;;;7.72;2.55;;;;;;;;;;5058854;28;20533;-72